Latest Weather Observations for Kingaroy

IDQ60801

Issued at 7:32 am EST Tuesday 6 December 2022 (issued every 10 minutes, with the page automatically refreshed every 10 minutes)

About weather observations | Map of weather stations | Latest weather observations for QLD | Other Formats
Station Details ID: 040922 Name: KINGAROY AIRPORT Lat: -26.57 Lon: 151.84 Height: 433.67 m
Data from the previous 72 hours. | See also: Recent months at Kingaroy
Date/Time
EST
Temp
°C
App
Temp
°C
Dew
Point
°C
Rel
Hum
%
Delta-T
°C
Wind Press
QNH
hPa
Press
MSL
hPa
Rain since
9am
mm
Dir  Spd
km/h
Gust
km/h
Spd
kts
Gust
kts
06/07:30am 20.7 22.4 18.1 85 1.6 NNW 6 9 3 5 1011.1 1008.7 0.0
06/07:00am 18.8 20.3 17.5 92 0.8 NNW 6 9 3 5 1011.1 1008.7 0.0
06/06:30am 17.4 19.8 16.9 97 0.3 CALM 0 0 0 0 1011.1 1008.7 0.0
06/06:00am 15.3 17.0 15.1 99 0.1 CALM 0 0 0 0 1010.6 1008.2 0.0
06/05:30am 13.8 14.9 13.6 99 0.1 CALM 0 0 0 0 1010.5 1008.1 0.0
06/05:00am 13.1 14.1 13.1 100 0.0 CALM 0 0 0 0 1010.1 1007.7 0.0
06/04:49am 13.3 14.3 13.3 100 0.0 CALM 0 0 0 0 1010.1 1007.7 0.0
06/04:30am 13.0 13.5 12.8 99 0.1 S 2 7 1 4 1010.1 1007.7 0.0
06/04:29am 13.0 13.5 12.8 99 0.1 S 2 7 1 4 1010.0 1007.6 0.0
06/04:00am 13.2 13.4 13.0 99 0.1 S 4 7 2 4 1009.7 1007.3 0.0
06/03:30am 14.2 15.5 14.0 99 0.1 CALM 0 0 0 0 1009.4 1007.0 0.0
06/03:00am 14.1 15.1 13.1 94 0.6 CALM 0 0 0 0 1009.5 1007.1 0.0
06/02:30am 14.7 16.1 14.4 98 0.2 CALM 0 0 0 0 1009.5 1007.1 0.0
06/02:00am 14.8 16.2 14.3 97 0.3 CALM 0 0 0 0 1009.3 1006.9 0.0
06/01:30am 15.8 17.6 15.5 98 0.2 CALM 0 0 0 0 1009.5 1007.1 0.0
06/01:00am 16.2 18.0 15.6 96 0.4 CALM 0 0 0 0 1009.8 1007.4 0.0
06/12:30am 16.1 17.7 14.8 92 0.8 CALM 0 0 0 0 1010.2 1007.8 0.0
06/12:00am 16.3 17.6 14.0 86 1.3 CALM 0 0 0 0 1010.5 1008.1 0.0
 
Date/Time
EST
Temp
°C
App
Temp
°C
Dew
Point
°C
Rel
Hum
%
Delta-T
°C
Wind Press
QNH
hPa
Press
MSL
hPa
Rain since
9am
mm
Dir  Spd
km/h
Gust
km/h
Spd
kts
Gust
kts
05/11:30pm 16.0 17.2 13.7 86 1.3 CALM 0 0 0 0 1010.7 1008.3 0.0
05/11:00pm 16.5 17.3 12.7 78 2.2 CALM 0 0 0 0 1010.9 1008.5 0.0
05/10:30pm 16.2 17.0 12.7 80 2.0 CALM 0 0 0 0 1011.1 1008.7 0.0
05/10:00pm 16.4 17.2 12.6 78 2.1 CALM 0 0 0 0 1011.1 1008.7 0.0
05/09:30pm 16.9 17.8 13.0 78 2.2 CALM 0 0 0 0 1010.9 1008.5 0.0
05/09:00pm 17.2 18.0 12.7 75 2.6 CALM 0 6 0 3 1010.7 1008.3 0.0
05/08:30pm 18.1 17.7 12.3 69 3.3 E 6 9 3 5 1010.4 1008.0 0.0
05/08:00pm 19.2 18.6 11.7 62 4.2 E 6 7 3 4 1010.4 1008.0 0.0
05/07:30pm 20.0 19.5 12.0 60 4.5 E 6 9 3 5 1010.1 1007.7 0.0
05/07:00pm 22.8 23.2 11.2 48 6.6 CALM 0 0 0 0 1009.8 1007.4 0.0
05/06:30pm 25.2 25.1 9.5 37 8.8 CALM 0 2 0 1 1009.3 1006.9 0.0
05/06:00pm 26.8 24.9 9.2 33 9.9 SW 9 15 5 8 1009.1 1006.6 0.0
05/05:30pm 27.6 25.6 8.5 30 10.6 SSW 9 13 5 7 1008.7 1006.3 0.0
05/05:00pm 28.2 26.2 8.5 29 11.0 W 9 15 5 8 1008.6 1006.2 0.0
05/04:30pm 28.5 24.9 8.2 28 11.3 SW 17 24 9 13 1008.4 1006.0 0.0
05/04:00pm 28.2 24.8 9.0 30 10.8 SW 17 20 9 11 1008.4 1006.0 0.0
05/03:30pm 28.7 25.7 9.4 30 10.9 SSW 15 24 8 13 1008.6 1006.2 0.0
05/03:00pm 27.9 24.6 9.7 32 10.4 SSW 17 24 9 13 1008.7 1006.3 0.0
05/02:30pm 28.3 25.4 9.6 31 10.6 SW 15 24 8 13 1008.9 1006.5 0.0
05/02:00pm 28.2 24.9 9.5 31 10.6 S 17 28 9 15 1009.4 1007.0 0.0
05/01:30pm 27.1 25.9 9.5 33 9.9 SSE 6 13 3 7 1009.6 1007.2 0.0
05/01:00pm 26.9 26.6 13.3 43 8.2 SE 7 15 4 8 1010.0 1007.6 0.0
05/12:30pm 27.2 26.1 13.2 42 8.4 SSE 11 19 6 10 1010.5 1008.1 0.0
05/12:00pm 26.3 24.6 12.4 42 8.2 SSW 13 26 7 14 1010.9 1008.5 0.0
05/11:30am 26.3 23.7 12.0 41 8.4 SSE 17 28 9 15 1011.3 1009.0 0.0
05/11:00am 25.4 24.4 14.5 51 6.6 SSE 13 17 7 9 1011.9 1009.5 0.0
05/10:30am 24.6 24.5 15.0 55 5.9 SSE 9 19 5 10 1012.2 1009.8 0.0
05/10:00am 23.3 23.9 15.9 63 4.6 ESE 7 15 4 8 1012.3 1009.9 0.0
05/09:30am 22.5 21.8 14.4 60 4.9 SE 11 19 6 10 1012.6 1010.2 0.0
05/09:00am 21.9 21.6 15.5 67 3.9 ESE 11 20 6 11 1012.7 1010.3 0.0
05/08:30am 21.8 21.5 15.4 67 3.9 E 11 17 6 9 1012.9 1010.5 0.0
05/08:00am 20.7 20.4 15.5 72 3.2 ESE 11 17 6 9 1012.8 1010.4 0.0
05/07:30am 18.9 17.2 14.8 77 2.4 SSE 17 22 9 12 1013.0 1010.6 0.0
05/07:00am 18.0 16.5 15.3 84 1.6 SSE 17 20 9 11 1013.0 1010.6 0.0
05/06:30am 17.2 15.9 14.8 86 1.4 SSE 15 20 8 11 1012.7 1010.3 0.0
05/06:00am 16.2 16.0 15.6 96 0.4 S 11 11 6 6 1012.5 1010.1 0.0
05/05:30am 15.1 15.0 14.9 99 0.1 SSE 9 11 5 6 1012.3 1009.9 0.0
05/05:00am 14.9 14.3 14.7 99 0.1 SSE 11 15 6 8 1011.8 1009.4 0.0
05/04:30am 15.1 15.0 14.9 99 0.1 SE 9 11 5 6 1011.6 1009.2 0.0
05/04:00am 15.4 15.4 15.2 99 0.1 ESE 9 15 5 8 1011.6 1009.2 0.0
05/03:30am 15.1 15.4 14.9 99 0.1 SSE 7 11 4 6 1011.3 1009.0 0.0
05/03:00am 15.4 15.8 15.2 99 0.1 SSE 7 9 4 5 1011.3 1009.0 0.0
05/02:51am 15.5 15.9 15.3 99 0.1 SSE 7 11 4 6 1011.3 1009.0 0.0
05/02:30am 16.1 16.4 15.9 99 0.1 S 9 13 5 7 1011.5 1009.1 0.0
05/02:00am 16.5 16.5 16.3 99 0.1 SSE 11 17 6 9 1011.9 1009.5 0.0
05/01:30am 16.7 17.1 16.2 97 0.3 SSE 9 11 5 6 1012.2 1009.8 0.0
05/01:00am 17.0 17.3 16.0 94 0.6 ESE 9 15 5 8 1012.7 1010.3 0.0
05/12:30am 16.8 16.3 16.0 95 0.5 ESE 13 28 7 15 1013.0 1010.6 0.0
05/12:00am 15.5 16.0 15.5 100 0.0 S 7 9 4 5 1013.5 1011.2 0.0
 
Date/Time
EST
Temp
°C
App
Temp
°C
Dew
Point
°C
Rel
Hum
%
Delta-T
°C
Wind Press
QNH
hPa
Press
MSL
hPa
Rain since
9am
mm
Dir  Spd
km/h
Gust
km/h
Spd
kts
Gust
kts
04/11:52pm 15.0 14.9 15.0 100 0.0 S 9 9 5 5 1013.7 1011.4 0.0
04/11:30pm 15.3 15.3 15.1 99 0.1 S 9 9 5 5 1013.8 1011.5 0.0
04/11:00pm 16.1 16.9 15.9 99 0.1 SE 6 9 3 5 1014.1 1011.7 0.0
04/10:30pm 16.7 17.4 16.2 97 0.3 ESE 7 11 4 6 1014.2 1011.8 0.0
04/10:00pm 16.8 17.5 16.0 95 0.5 ENE 7 9 4 5 1014.3 1011.9 0.0
04/09:30pm 16.9 17.4 15.6 92 0.8 NE 7 9 4 5 1014.4 1012.0 0.0
04/09:00pm 17.7 17.9 15.7 88 1.2 ENE 9 13 5 7 1014.4 1012.0 0.0
04/08:30pm 18.7 18.1 15.6 82 1.9 ESE 13 19 7 10 1014.1 1011.7 0.0
04/08:00pm 18.7 18.8 15.4 81 2.0 ESE 9 13 5 7 1013.6 1011.3 0.0
04/07:30pm 19.5 19.6 15.4 77 2.5 ENE 9 15 5 8 1013.3 1011.0 0.0
04/07:00pm 20.4 19.6 15.0 71 3.2 ENE 13 20 7 11 1013.0 1010.6 0.0
04/06:30pm 20.9 19.6 14.8 68 3.7 E 15 19 8 10 1012.7 1010.3 0.0
04/06:00pm 21.3 19.3 14.0 63 4.3 ESE 17 26 9 14 1012.5 1010.1 0.0
04/05:30pm 22.2 20.3 14.1 60 4.8 ESE 17 24 9 13 1012.0 1009.6 0.0
04/05:00pm 23.0 20.5 13.5 55 5.6 E 19 26 10 14 1011.6 1009.2 0.0
04/04:30pm 25.0 22.9 13.5 48 6.9 ESE 17 24 9 13 1011.2 1008.9 0.0
04/04:00pm 23.8 22.4 13.4 52 6.2 SE 13 19 7 10 1011.1 1008.7 0.0
04/03:30pm 23.4 21.3 12.4 50 6.4 ESE 15 28 8 15 1011.1 1008.7 0.0
04/03:00pm 24.2 21.5 12.8 49 6.7 SSE 19 26 10 14 1011.3 1009.0 0.0
04/02:30pm 23.4 20.9 12.4 50 6.4 SE 17 24 9 13 1011.7 1009.3 0.0
04/02:00pm 24.1 21.8 13.0 50 6.5 ESE 17 24 9 13 1012.1 1009.7 0.0
04/01:30pm 23.4 21.2 13.3 53 6.0 E 17 24 9 13 1012.4 1010.0 0.0
04/01:00pm 24.2 22.4 12.2 47 7.0 ENE 13 20 7 11 1012.7 1010.3 0.0
04/12:30pm 23.6 21.4 13.2 52 6.1 E 17 30 9 16 1013.0 1010.6 0.0
04/12:00pm 23.5 21.8 14.8 58 5.3 E 17 28 9 15 1013.4 1011.1 0.0
04/11:30am 23.3 21.2 13.5 54 5.8 ENE 17 26 9 14 1013.8 1011.5 0.0
04/11:00am 22.5 20.5 13.8 58 5.2 E 17 26 9 14 1014.2 1011.8 0.0
04/10:30am 21.9 19.2 13.0 57 5.2 ESE 19 30 10 16 1014.3 1011.9 0.0
04/10:00am 22.0 19.5 13.6 59 5.0 ENE 19 30 10 16 1014.5 1012.1 0.0
04/09:30am 21.6 19.1 13.5 60 4.8 NE 19 30 10 16 1014.9 1012.5 0.0
04/09:00am 20.8 18.9 13.0 61 4.5 ENE 15 24 8 13 1015.1 1012.7 0.0
04/08:30am 19.5 15.9 11.8 61 4.3 ENE 22 35 12 19 1015.1 1012.7 0.0
04/08:00am 19.4 17.2 13.3 68 3.5 ENE 17 28 9 15 1015.3 1012.9 0.0
04/07:30am 17.7 15.2 12.2 70 3.1 ENE 17 35 9 19 1015.1 1012.7 0.0
04/07:00am 17.1 14.2 12.4 74 2.7 ESE 19 26 10 14 1015.1 1012.7 0.0
04/06:30am 16.2 14.6 12.9 81 1.9 ESE 13 20 7 11 1014.9 1012.5 0.0
04/06:00am 15.4 14.9 12.7 84 1.5 SSE 7 11 4 6 1014.6 1012.2 0.0
04/05:30am 14.1 13.1 12.3 89 1.0 SE 9 13 5 7 1014.1 1011.7 0.0
04/05:00am 13.5 12.1 12.1 91 0.8 SE 11 15 6 8 1013.7 1011.4 0.0
04/04:30am 14.2 12.4 12.1 87 1.2 ESE 13 22 7 12 1013.6 1011.3 0.0
04/04:00am 13.6 12.5 12.0 90 0.9 SE 9 13 5 7 1013.6 1011.3 0.0
04/03:30am 14.0 12.6 12.2 89 1.0 E 11 20 6 11 1013.6 1011.3 0.0
04/03:00am 13.6 11.8 12.0 90 0.9 NE 13 22 7 12 1013.7 1011.4 0.0
04/02:30am 13.6 12.1 12.0 90 0.9 ENE 11 15 6 8 1014.0 1011.6 0.0
04/02:00am 14.4 11.8 11.9 85 1.4 E 17 26 9 14 1013.8 1011.5 0.0
04/01:30am 14.5 12.3 12.0 85 1.4 E 15 24 8 13 1013.8 1011.5 0.0
04/01:00am 14.7 11.7 11.8 83 1.6 E 19 30 10 16 1014.0 1011.6 0.0
04/12:30am 14.9 12.7 12.0 83 1.6 ESE 15 30 8 16 1014.5 1012.1 0.0
04/12:00am 14.9 13.1 12.2 84 1.5 E 13 20 7 11 1014.7 1012.3 0.0
 
Date/Time
EST
Temp
°C
App
Temp
°C
Dew
Point
°C
Rel
Hum
%
Delta-T
°C
Wind Press
QNH
hPa
Press
MSL
hPa
Rain since
9am
mm
Dir  Spd
km/h
Gust
km/h
Spd
kts
Gust
kts
03/11:30pm 15.2 13.1 12.5 84 1.5 E 15 22 8 12 1014.9 1012.5 0.0
03/11:00pm 15.0 13.5 13.2 89 1.0 E 13 20 7 11 1015.3 1012.9 0.0
03/10:30pm 14.2 14.6 13.7 97 0.3 ESE 4 11 2 6 1015.6 1013.3 0.0
03/10:00pm 14.0 15.2 13.8 99 0.1 CALM 0 0 0 0 1015.6 1013.3 0.0
03/09:30pm 14.3 15.5 13.7 96 0.3 CALM 0 0 0 0 1015.5 1013.2 0.0
03/09:00pm 14.5 14.4 13.2 92 0.7 ENE 6 7 3 4 1015.3 1012.9 0.0
03/08:30pm 14.7 14.3 13.1 90 0.9 S 7 7 4 4 1015.1 1012.7 0.0
03/08:00pm 15.4 16.0 13.2 87 1.2 NW 2 7 1 4 1015.0 1012.6 0.0
03/07:30pm 16.6 16.5 13.3 81 1.9 ESE 6 11 3 6 1014.7 1012.3 0.0
03/07:00pm 17.4 16.2 12.9 75 2.6 E 11 19 6 10 1014.5 1012.1 0.0
03/06:30pm 18.0 16.4 12.9 72 2.9 ENE 13 26 7 14 1014.2 1011.8 0.0
03/06:00pm 19.0 17.5 13.0 68 3.5 ENE 13 20 7 11 1013.7 1011.4 0.0
03/05:30pm 19.3 16.0 12.8 66 3.7 E 22 32 12 17 1013.5 1011.2 0.0
03/05:00pm 19.9 16.3 13.1 65 3.9 E 24 35 13 19 1013.3 1011.0 0.0
03/04:30pm 20.0 16.9 13.5 66 3.8 ESE 22 35 12 19 1013.3 1011.0 0.0
03/04:00pm 20.7 17.1 13.2 62 4.4 ESE 24 37 13 20 1013.1 1010.7 0.0
03/03:30pm 22.5 19.2 10.9 47 6.5 SE 19 32 10 17 1012.6 1010.2 0.0
03/03:00pm 22.6 19.3 11.0 48 6.6 SE 19 24 10 13 1012.7 1010.3 0.0
03/02:30pm 23.4 20.4 10.8 45 7.1 E 17 28 9 15 1012.8 1010.4 0.0
03/02:00pm 23.5 20.4 10.2 43 7.5 E 17 26 9 14 1013.2 1010.8 0.0
03/01:30pm 22.9 19.5 11.3 48 6.6 E 20 28 11 15 1013.4 1011.1 0.0
03/01:00pm 22.6 19.0 11.7 50 6.2 E 22 35 12 19 1013.7 1011.4 0.0
03/12:30pm 23.5 19.6 12.2 49 6.6 E 24 35 13 19 1014.0 1011.6 0.0
03/12:00pm 22.9 20.0 12.8 53 5.9 E 20 33 11 18 1014.2 1011.8 0.0
03/11:30am 21.6 18.2 11.3 52 5.8 ESE 20 35 11 19 1014.4 1012.0 0.0
03/11:00am 22.2 19.2 12.7 55 5.5 E 20 39 11 21 1014.3 1011.9 0.0
03/10:30am 22.2 18.5 12.7 55 5.5 ESE 24 41 13 22 1014.5 1012.1 0.0
03/10:00am 21.8 17.0 11.8 53 5.7 E 28 41 15 22 1014.7 1012.3 0.0
03/09:30am 21.2 16.7 11.5 54 5.5 E 26 37 14 20 1014.9 1012.5 0.0
03/09:00am 20.5 15.8 10.6 53 5.5 E 26 43 14 23 1014.9 1012.5 0.0
03/08:30am 20.4 16.9 12.1 59 4.7 E 22 41 12 22 1014.6 1012.2 0.0
03/08:00am 18.5 13.8 10.6 60 4.3 E 26 39 14 21 1014.7 1012.3 0.0

Other formats

Comma delimited format used in spreadsheet applications
http://www.bom.gov.au/fwo/IDQ60801/IDQ60801.94549.axf

JavaScript Object Notation format (JSON) in row-major order
http://www.bom.gov.au/fwo/IDQ60801/IDQ60801.94549.json

Data quality

Most of these data are generated automatically and are frequently updated. Quality checks on data are not normally performed. It is possible for incorrect values to appear. Refer to information at About Latest Weather Observations and please check the disclaimer before using these data.